sensor_id;sensor_type;location;lat;lon;timestamp;pressure;altitude;pressure_sealevel;temperature;humidity
13695;BME280;6919;52.344;14.518;2023-01-29T00:00:08;101813.13;;;-0.64;100.00
13695;BME280;6919;52.344;14.518;2023-01-29T00:02:36;101803.00;;;-0.51;100.00
13695;BME280;6919;52.344;14.518;2023-01-29T00:05:07;101800.97;;;-0.68;100.00
13695;BME280;6919;52.344;14.518;2023-01-29T00:07:53;101802.56;;;-0.64;100.00
13695;BME280;6919;52.344;14.518;2023-01-29T00:10:22;101803.16;;;-0.56;100.00
13695;BME280;6919;52.344;14.518;2023-01-29T00:12:51;101810.44;;;-0.62;100.00
13695;BME280;6919;52.344;14.518;2023-01-29T00:15:19;101802.47;;;-0.61;100.00
13695;BME280;6919;52.344;14.518;2023-01-29T00:17:47;101795.34;;;-0.59;100.00
13695;BME280;6919;52.344;14.518;2023-01-29T00:20:17;101789.63;;;-0.70;100.00
13695;BME280;6919;52.344;14.518;2023-01-29T00:22:46;101794.88;;;-0.70;100.00
13695;BME280;6919;52.344;14.518;2023-01-29T00:25:14;101781.72;;;-0.70;100.00
13695;BME280;6919;52.344;14.518;2023-01-29T00:27:42;101780.94;;;-0.72;100.00
13695;BME280;6919;52.344;14.518;2023-01-29T00:30:12;101773.81;;;-0.70;100.00
13695;BME280;6919;52.344;14.518;2023-01-29T00:32:42;101765.81;;;-0.67;100.00
13695;BME280;6919;52.344;14.518;2023-01-29T00:35:11;101760.53;;;-0.67;100.00
13695;BME280;6919;52.344;14.518;2023-01-29T00:37:40;101757.88;;;-0.65;100.00
13695;BME280;6919;52.344;14.518;2023-01-29T00:40:10;101763.94;;;-0.63;100.00
13695;BME280;6919;52.344;14.518;2023-01-29T00:42:38;101755.28;;;-0.67;100.00
13695;BME280;6919;52.344;14.518;2023-01-29T00:45:24;101745.56;;;-0.65;100.00
13695;BME280;6919;52.344;14.518;2023-01-29T00:47:52;101751.00;;;-0.69;100.00
13695;BME280;6919;52.344;14.518;2023-01-29T00:50:20;101744.00;;;-0.70;100.00
13695;BME280;6919;52.344;14.518;2023-01-29T00:52:50;101749.22;;;-0.69;100.00
13695;BME280;6919;52.344;14.518;2023-01-29T00:55:20;101746.59;;;-0.69;100.00
13695;BME280;6919;52.344;14.518;2023-01-29T00:57:49;101761.31;;;-0.63;100.00
13695;BME280;6919;52.344;14.518;2023-01-29T01:00:18;101759.53;;;-0.63;100.00
13695;BME280;6919;52.344;14.518;2023-01-29T01:02:47;101746.25;;;-0.60;100.00
13695;BME280;6919;52.344;14.518;2023-01-29T01:05:32;101746.34;;;-0.63;100.00
13695;BME280;6919;52.344;14.518;2023-01-29T01:08:02;101740.28;;;-0.65;100.00
13695;BME280;6919;52.344;14.518;2023-01-29T01:10:59;101748.09;;;-0.62;100.00
13695;BME280;6919;52.344;14.518;2023-01-29T01:13:27;101739.16;;;-0.58;100.00
13695;BME280;6919;52.344;14.518;2023-01-29T01:15:55;101742.69;;;-0.59;100.00
13695;BME280;6919;52.344;14.518;2023-01-29T01:18:23;101738.41;;;-0.61;100.00
13695;BME280;6919;52.344;14.518;2023-01-29T01:20:56;101737.31;;;-0.56;100.00
13695;BME280;6919;52.344;14.518;2023-01-29T01:23:26;101736.53;;;-0.58;100.00
13695;BME280;6919;52.344;14.518;2023-01-29T01:25:55;101739.25;;;-0.61;100.00
13695;BME280;6919;52.344;14.518;2023-01-29T01:28:23;101740.13;;;-0.60;100.00
13695;BME280;6919;52.344;14.518;2023-01-29T01:30:51;101747.16;;;-0.61;100.00
13695;BME280;6919;52.344;14.518;2023-01-29T01:33:20;101735.91;;;-0.66;100.00
13695;BME280;6919;52.344;14.518;2023-01-29T01:35:48;101736.75;;;-0.64;100.00
13695;BME280;6919;52.344;14.518;2023-01-29T01:38:16;101732.50;;;-0.68;100.00
13695;BME280;6919;52.344;14.518;2023-01-29T01:40:46;101725.22;;;-0.61;100.00
13695;BME280;6919;52.344;14.518;2023-01-29T01:43:14;101723.72;;;-0.68;100.00
13695;BME280;6919;52.344;14.518;2023-01-29T01:45:42;101719.78;;;-0.57;100.00
13695;BME280;6919;52.344;14.518;2023-01-29T01:48:17;101724.09;;;-0.54;100.00
13695;BME280;6919;52.344;14.518;2023-01-29T01:50:52;101727.59;;;-0.54;100.00
13695;BME280;6919;52.344;14.518;2023-01-29T01:53:25;101722.59;;;-0.61;100.00
13695;BME280;6919;52.344;14.518;2023-01-29T01:56:01;101733.78;;;-0.55;100.00
13695;BME280;6919;52.344;14.518;2023-01-29T01:58:36;101725.28;;;-0.63;100.00
13695;BME280;6919;52.344;14.518;2023-01-29T02:01:07;101733.84;;;-0.56;100.00
13695;BME280;6919;52.344;14.518;2023-01-29T02:03:43;101727.81;;;-0.60;100.00
13695;BME280;6919;52.344;14.518;2023-01-29T02:06:30;101740.06;;;-0.59;100.00
13695;BME280;6919;52.344;14.518;2023-01-29T02:09:22;101736.69;;;-0.62;100.00
13695;BME280;6919;52.344;14.518;2023-01-29T02:12:03;101736.41;;;-0.55;100.00
13695;BME280;6919;52.344;14.518;2023-01-29T02:14:33;101735.28;;;-0.48;100.00
13695;BME280;6919;52.344;14.518;2023-01-29T02:17:05;101719.47;;;-0.48;100.00
13695;BME280;6919;52.344;14.518;2023-01-29T02:19:46;101731.06;;;-0.53;100.00
13695;BME280;6919;52.344;14.518;2023-01-29T02:22:43;101735.50;;;-0.54;100.00
13695;BME280;6919;52.344;14.518;2023-01-29T02:25:43;101731.06;;;-0.53;100.00
13695;BME280;6919;52.344;14.518;2023-01-29T02:28:27;101722.22;;;-0.51;100.00
13695;BME280;6919;52.344;14.518;2023-01-29T02:31:07;101710.63;;;-0.47;100.00
13695;BME280;6919;52.344;14.518;2023-01-29T02:33:55;101711.56;;;-0.48;100.00
13695;BME280;6919;52.344;14.518;2023-01-29T02:36:38;101713.31;;;-0.48;100.00
13695;BME280;6919;52.344;14.518;2023-01-29T02:39:18;101716.25;;;-0.56;100.00
13695;BME280;6919;52.344;14.518;2023-01-29T02:42:00;101702.41;;;-0.61;100.00
13695;BME280;6919;52.344;14.518;2023-01-29T02:44:40;101703.06;;;-0.56;100.00
13695;BME280;6919;52.344;14.518;2023-01-29T02:47:17;101707.78;;;-0.64;100.00
13695;BME280;6919;52.344;14.518;2023-01-29T02:49:51;101706.13;;;-0.66;100.00
13695;BME280;6919;52.344;14.518;2023-01-29T02:52:31;101708.59;;;-0.62;100.00
13695;BME280;6919;52.344;14.518;2023-01-29T02:55:10;101706.13;;;-0.66;100.00
13695;BME280;6919;52.344;14.518;2023-01-29T02:57:43;101702.63;;;-0.67;100.00
13695;BME280;6919;52.344;14.518;2023-01-29T03:00:18;101681.75;;;-0.73;100.00
13695;BME280;6919;52.344;14.518;2023-01-29T03:02:55;101694.25;;;-0.78;100.00
13695;BME280;6919;52.344;14.518;2023-01-29T03:05:31;101691.47;;;-0.73;100.00
13695;BME280;6919;52.344;14.518;2023-01-29T03:08:07;101684.75;;;-0.82;100.00
13695;BME280;6919;52.344;14.518;2023-01-29T03:10:43;101688.53;;;-0.89;100.00
13695;BME280;6919;52.344;14.518;2023-01-29T03:13:20;101683.88;;;-0.82;100.00
13695;BME280;6919;52.344;14.518;2023-01-29T03:15:58;101679.50;;;-0.82;100.00
13695;BME280;6919;52.344;14.518;2023-01-29T03:18:34;101664.78;;;-0.87;100.00
13695;BME280;6919;52.344;14.518;2023-01-29T03:21:15;101678.72;;;-0.85;100.00
13695;BME280;6919;52.344;14.518;2023-01-29T03:24:14;101671.91;;;-0.91;100.00
13695;BME280;6919;52.344;14.518;2023-01-29T03:27:07;101673.66;;;-0.90;100.00
13695;BME280;6919;52.344;14.518;2023-01-29T03:29:56;101672.78;;;-0.90;100.00
13695;BME280;6919;52.344;14.518;2023-01-29T03:32:47;101666.59;;;-0.89;100.00
13695;BME280;6919;52.344;14.518;2023-01-29T03:35:22;101669.06;;;-0.85;100.00
13695;BME280;6919;52.344;14.518;2023-01-29T03:38:03;101669.75;;;-0.80;100.00
13695;BME280;6919;52.344;14.518;2023-01-29T03:40:40;101666.44;;;-0.85;100.00
13695;BME280;6919;52.344;14.518;2023-01-29T03:43:22;101668.97;;;-0.82;100.00
13695;BME280;6919;52.344;14.518;2023-01-29T03:46:03;101662.66;;;-0.78;100.00
13695;BME280;6919;52.344;14.518;2023-01-29T03:48:42;101660.13;;;-0.81;100.00
13695;BME280;6919;52.344;14.518;2023-01-29T03:51:22;101663.34;;;-0.73;100.00
13695;BME280;6919;52.344;14.518;2023-01-29T03:54:02;101656.19;;;-0.69;100.00
13695;BME280;6919;52.344;14.518;2023-01-29T03:56:44;101657.84;;;-0.67;100.00
13695;BME280;6919;52.344;14.518;2023-01-29T03:59:28;101649.94;;;-0.67;100.00
13695;BME280;6919;52.344;14.518;2023-01-29T04:02:02;101653.56;;;-0.69;100.00
13695;BME280;6919;52.344;14.518;2023-01-29T04:04:36;101646.28;;;-0.63;100.00
13695;BME280;6919;52.344;14.518;2023-01-29T04:07:11;101642.75;;;-0.62;100.00
13695;BME280;6919;52.344;14.518;2023-01-29T04:09:48;101644.44;;;-0.61;100.00
13695;BME280;6919;52.344;14.518;2023-01-29T04:12:27;101642.84;;;-0.65;100.00
13695;BME280;6919;52.344;14.518;2023-01-29T04:15:00;101632.94;;;-0.58;100.00
13695;BME280;6919;52.344;14.518;2023-01-29T04:17:35;101624.06;;;-0.56;100.00
13695;BME280;6919;52.344;14.518;2023-01-29T04:20:07;101620.44;;;-0.53;100.00
13695;BME280;6919;52.344;14.518;2023-01-29T04:22:38;101625.66;;;-0.52;100.00
13695;BME280;6919;52.344;14.518;2023-01-29T04:25:11;101612.63;;;-0.55;100.00
13695;BME280;6919;52.344;14.518;2023-01-29T04:27:51;101601.22;;;-0.55;100.00
13695;BME280;6919;52.344;14.518;2023-01-29T04:30:37;101594.03;;;-0.52;100.00
13695;BME280;6919;52.344;14.518;2023-01-29T04:33:20;101585.13;;;-0.48;100.00
13695;BME280;6919;52.344;14.518;2023-01-29T04:36:13;101573.84;;;-0.51;100.00
13695;BME280;6919;52.344;14.518;2023-01-29T04:39:02;101583.44;;;-0.50;100.00
13695;BME280;6919;52.344;14.518;2023-01-29T04:41:39;101568.56;;;-0.51;100.00
13695;BME280;6919;52.344;14.518;2023-01-29T04:44:18;101582.84;;;-0.57;100.00
13695;BME280;6919;52.344;14.518;2023-01-29T04:46:56;101581.56;;;-0.47;100.00
13695;BME280;6919;52.344;14.518;2023-01-29T04:49:42;101569.38;;;-0.49;100.00
13695;BME280;6919;52.344;14.518;2023-01-29T04:52:21;101576.06;;;-0.41;100.00
13695;BME280;6919;52.344;14.518;2023-01-29T04:55:00;101584.09;;;-0.44;100.00
13695;BME280;6919;52.344;14.518;2023-01-29T04:57:38;101584.31;;;-0.50;100.00
13695;BME280;6919;52.344;14.518;2023-01-29T05:00:17;101575.13;;;-0.40;100.00
13695;BME280;6919;52.344;14.518;2023-01-29T05:02:48;101568.06;;;-0.39;100.00
13695;BME280;6919;52.344;14.518;2023-01-29T05:05:19;101566.19;;;-0.36;100.00
13695;BME280;6919;52.344;14.518;2023-01-29T05:07:49;101561.72;;;-0.34;100.00
13695;BME280;6919;52.344;14.518;2023-01-29T05:10:20;101566.84;;;-0.31;100.00
13695;BME280;6919;52.344;14.518;2023-01-29T05:12:57;101560.91;;;-0.36;100.00
13695;BME280;6919;52.344;14.518;2023-01-29T05:15:35;101565.38;;;-0.38;100.00
13695;BME280;6919;52.344;14.518;2023-01-29T05:18:05;101571.69;;;-0.42;100.00
13695;BME280;6919;52.344;14.518;2023-01-29T05:20:38;101565.13;;;-0.32;100.00
13695;BME280;6919;52.344;14.518;2023-01-29T05:23:14;101564.84;;;-0.24;100.00
13695;BME280;6919;52.344;14.518;2023-01-29T05:25:43;101569.63;;;-0.34;100.00
13695;BME280;6919;52.344;14.518;2023-01-29T05:28:12;101568.50;;;-0.28;100.00
13695;BME280;6919;52.344;14.518;2023-01-29T05:30:44;101570.16;;;-0.26;100.00
13695;BME280;6919;52.344;14.518;2023-01-29T05:33:17;101584.22;;;-0.27;100.00
13695;BME280;6919;52.344;14.518;2023-01-29T05:35:46;101586.88;;;-0.27;100.00
13695;BME280;6919;52.344;14.518;2023-01-29T05:38:17;101586.69;;;-0.22;100.00
13695;BME280;6919;52.344;14.518;2023-01-29T05:40:45;101588.72;;;-0.07;100.00
13695;BME280;6919;52.344;14.518;2023-01-29T05:43:16;101591.97;;;-0.22;100.00
13695;BME280;6919;52.344;14.518;2023-01-29T05:45:52;101587.63;;;-0.23;100.00
13695;BME280;6919;52.344;14.518;2023-01-29T05:48:20;101596.81;;;-0.12;100.00
13695;BME280;6919;52.344;14.518;2023-01-29T05:50:49;101592.19;;;-0.07;100.00
13695;BME280;6919;52.344;14.518;2023-01-29T05:53:19;101589.19;;;0.03;100.00
13695;BME280;6919;52.344;14.518;2023-01-29T05:55:47;101594.66;;;-0.02;100.00
13695;BME280;6919;52.344;14.518;2023-01-29T05:58:15;101597.63;;;0.11;100.00
13695;BME280;6919;52.344;14.518;2023-01-29T06:00:45;101592.81;;;0.00;100.00
13695;BME280;6919;52.344;14.518;2023-01-29T06:03:14;101585.88;;;-0.03;100.00
13695;BME280;6919;52.344;14.518;2023-01-29T06:05:43;101597.22;;;-0.01;100.00
13695;BME280;6919;52.344;14.518;2023-01-29T06:08:11;101595.88;;;-0.11;100.00
13695;BME280;6919;52.344;14.518;2023-01-29T06:10:41;101599.31;;;-0.09;100.00
13695;BME280;6919;52.344;14.518;2023-01-29T06:13:09;101613.59;;;-0.14;100.00
13695;BME280;6919;52.344;14.518;2023-01-29T06:15:40;101610.09;;;-0.15;100.00
13695;BME280;6919;52.344;14.518;2023-01-29T06:18:08;101611.28;;;-0.22;100.00
13695;BME280;6919;52.344;14.518;2023-01-29T06:20:37;101614.78;;;-0.21;100.00
13695;BME280;6919;52.344;14.518;2023-01-29T06:23:05;101609.00;;;-0.09;100.00
13695;BME280;6919;52.344;14.518;2023-01-29T06:25:33;101606.72;;;-0.18;100.00
13695;BME280;6919;52.344;14.518;2023-01-29T06:28:03;101607.81;;;-0.24;100.00
13695;BME280;6919;52.344;14.518;2023-01-29T06:30:31;101596.81;;;-0.12;100.00
13695;BME280;6919;52.344;14.518;2023-01-29T06:33:00;101598.28;;;-0.26;100.00
13695;BME280;6919;52.344;14.518;2023-01-29T06:35:28;101608.94;;;-0.29;100.00
13695;BME280;6919;52.344;14.518;2023-01-29T06:37:57;101602.06;;;-0.33;100.00
13695;BME280;6919;52.344;14.518;2023-01-29T06:40:25;101609.91;;;-0.32;100.00
13695;BME280;6919;52.344;14.518;2023-01-29T06:42:53;101610.09;;;-0.36;100.00
13695;BME280;6919;52.344;14.518;2023-01-29T06:45:23;101604.09;;;-0.40;100.00
13695;BME280;6919;52.344;14.518;2023-01-29T06:47:51;101599.44;;;-0.33;100.00
13695;BME280;6919;52.344;14.518;2023-01-29T06:50:19;101604.06;;;-0.38;100.00
13695;BME280;6919;52.344;14.518;2023-01-29T06:52:47;101592.88;;;-0.45;100.00
13695;BME280;6919;52.344;14.518;2023-01-29T06:55:15;101602.56;;;-0.45;100.00
13695;BME280;6919;52.344;14.518;2023-01-29T06:57:44;101618.44;;;-0.47;100.00
13695;BME280;6919;52.344;14.518;2023-01-29T07:00:14;101616.09;;;-0.54;100.00
13695;BME280;6919;52.344;14.518;2023-01-29T07:02:47;101619.59;;;-0.54;100.00
13695;BME280;6919;52.344;14.518;2023-01-29T07:05:16;101605.22;;;-0.45;100.00
13695;BME280;6919;52.344;14.518;2023-01-29T07:07:44;101614.22;;;-0.51;100.00
13695;BME280;6919;52.344;14.518;2023-01-29T07:10:12;101614.22;;;-0.51;100.00
13695;BME280;6919;52.344;14.518;2023-01-29T07:12:41;101609.63;;;-0.46;100.00
13695;BME280;6919;52.344;14.518;2023-01-29T07:15:09;101603.19;;;-0.39;100.00
13695;BME280;6919;52.344;14.518;2023-01-29T07:17:38;101619.38;;;-0.48;100.00
13695;BME280;6919;52.344;14.518;2023-01-29T07:20:10;101606.09;;;-0.46;100.00
13695;BME280;6919;52.344;14.518;2023-01-29T07:22:38;101616.34;;;-0.39;100.00
13695;BME280;6919;52.344;14.518;2023-01-29T07:25:08;101623.22;;;-0.35;100.00
13695;BME280;6919;52.344;14.518;2023-01-29T07:27:36;101613.16;;;-0.47;100.00
13695;BME280;6919;52.344;14.518;2023-01-29T07:30:08;101609.44;;;-0.41;100.00
13695;BME280;6919;52.344;14.518;2023-01-29T07:32:36;101606.84;;;-0.43;100.00
13695;BME280;6919;52.344;14.518;2023-01-29T07:35:05;101603.72;;;-0.31;100.00
13695;BME280;6919;52.344;14.518;2023-01-29T07:37:35;101602.88;;;-0.31;100.00
13695;BME280;6919;52.344;14.518;2023-01-29T07:40:05;101595.09;;;-0.34;100.00
13695;BME280;6919;52.344;14.518;2023-01-29T07:42:37;101604.78;;;-0.35;100.00
13695;BME280;6919;52.344;14.518;2023-01-29T07:45:10;101606.13;;;-0.25;100.00
13695;BME280;6919;52.344;14.518;2023-01-29T07:47:38;101604.41;;;-0.26;100.00
13695;BME280;6919;52.344;14.518;2023-01-29T07:50:08;101603.44;;;-0.23;100.00
13695;BME280;6919;52.344;14.518;2023-01-29T07:52:38;101591.78;;;-0.18;100.00
13695;BME280;6919;52.344;14.518;2023-01-29T07:55:07;101589.16;;;-0.18;100.00
13695;BME280;6919;52.344;14.518;2023-01-29T07:57:35;101581.28;;;-0.19;100.00
13695;BME280;6919;52.344;14.518;2023-01-29T08:00:05;101588.34;;;-0.20;100.00
13695;BME280;6919;52.344;14.518;2023-01-29T08:02:33;101576.91;;;-0.19;100.00
13695;BME280;6919;52.344;14.518;2023-01-29T08:05:02;101577.38;;;-0.09;100.00
13695;BME280;6919;52.344;14.518;2023-01-29T08:07:30;101572.53;;;-0.20;100.00
13695;BME280;6919;52.344;14.518;2023-01-29T08:10:00;101572.41;;;-0.17;100.00
13695;BME280;6919;52.344;14.518;2023-01-29T08:12:28;101576.13;;;-0.01;100.00
13695;BME280;6919;52.344;14.518;2023-01-29T08:14:56;101566.63;;;-0.05;100.00
13695;BME280;6919;52.344;14.518;2023-01-29T08:17:25;101560.63;;;-0.08;100.00
13695;BME280;6919;52.344;14.518;2023-01-29T08:19:53;101558.44;;;-0.19;100.00
13695;BME280;6919;52.344;14.518;2023-01-29T08:22:22;101557.53;;;-0.18;100.00
13695;BME280;6919;52.344;14.518;2023-01-29T08:24:50;101546.91;;;-0.16;100.00
13695;BME280;6919;52.344;14.518;2023-01-29T08:27:28;101538.41;;;-0.03;100.00
13695;BME280;6919;52.344;14.518;2023-01-29T08:29:56;101548.75;;;-0.18;100.00
13695;BME280;6919;52.344;14.518;2023-01-29T08:32:24;101546.78;;;-0.13;100.00
13695;BME280;6919;52.344;14.518;2023-01-29T08:34:52;101560.63;;;-0.08;100.00
13695;BME280;6919;52.344;14.518;2023-01-29T08:37:21;101565.66;;;-0.02;100.00
13695;BME280;6919;52.344;14.518;2023-01-29T08:39:49;101554.25;;;-0.03;100.00
13695;BME280;6919;52.344;14.518;2023-01-29T08:42:17;101553.34;;;-0.02;100.00
13695;BME280;6919;52.344;14.518;2023-01-29T08:44:47;101565.97;;;-0.10;100.00
13695;BME280;6919;52.344;14.518;2023-01-29T08:47:15;101570.56;;;-0.15;100.00
13695;BME280;6919;52.344;14.518;2023-01-29T08:49:43;101574.66;;;-0.08;100.00
13695;BME280;6919;52.344;14.518;2023-01-29T08:52:11;101582.19;;;0.01;100.00
13695;BME280;6919;52.344;14.518;2023-01-29T08:54:40;101572.50;;;0.02;100.00
13695;BME280;6919;52.344;14.518;2023-01-29T08:57:08;101564.41;;;0.07;100.00
13695;BME280;6919;52.344;14.518;2023-01-29T08:59:36;101575.72;;;0.08;100.00
13695;BME280;6919;52.344;14.518;2023-01-29T09:02:08;101575.28;;;0.19;100.00
13695;BME280;6919;52.344;14.518;2023-01-29T09:04:37;101573.66;;;0.17;100.00
13695;BME280;6919;52.344;14.518;2023-01-29T09:07:06;101575.59;;;0.12;100.00
13695;BME280;6919;52.344;14.518;2023-01-29T09:09:34;101575.53;;;0.13;100.00
13695;BME280;6919;52.344;14.518;2023-01-29T09:12:04;101572.84;;;0.15;100.00
13695;BME280;6919;52.344;14.518;2023-01-29T09:14:32;101566.97;;;0.08;100.00
13695;BME280;6919;52.344;14.518;2023-01-29T09:17:01;101560.91;;;0.06;100.00
13695;BME280;6919;52.344;14.518;2023-01-29T09:19:31;101564.16;;;0.13;100.00
13695;BME280;6919;52.344;14.518;2023-01-29T09:21:59;101563.34;;;0.11;100.00
13695;BME280;6919;52.344;14.518;2023-01-29T09:24:27;101559.34;;;0.22;100.00
13695;BME280;6919;52.344;14.518;2023-01-29T09:26:56;101552.81;;;0.11;100.00
13695;BME280;6919;52.344;14.518;2023-01-29T09:29:24;101541.59;;;0.26;100.00
13695;BME280;6919;52.344;14.518;2023-01-29T09:31:52;101543.78;;;0.16;100.00
13695;BME280;6919;52.344;14.518;2023-01-29T09:34:21;101546.88;;;0.26;100.00
13695;BME280;6919;52.344;14.518;2023-01-29T09:36:51;101548.97;;;0.18;100.00
13695;BME280;6919;52.344;14.518;2023-01-29T09:39:19;101554.31;;;0.16;100.00
13695;BME280;6919;52.344;14.518;2023-01-29T09:41:58;101548.91;;;0.19;100.00
13695;BME280;6919;52.344;14.518;2023-01-29T09:44:46;101551.69;;;0.16;100.00
13695;BME280;6919;52.344;14.518;2023-01-29T09:47:18;101549.50;;;0.26;100.00
13695;BME280;6919;52.344;14.518;2023-01-29T09:49:51;101529.34;;;0.25;100.00
13695;BME280;6919;52.344;14.518;2023-01-29T09:52:26;101522.34;;;0.24;100.00
13695;BME280;6919;52.344;14.518;2023-01-29T09:55:03;101521.44;;;0.25;100.00
13695;BME280;6919;52.344;14.518;2023-01-29T09:57:44;101520.31;;;0.30;100.00
13695;BME280;6919;52.344;14.518;2023-01-29T10:00:19;101516.94;;;0.27;100.00
13695;BME280;6919;52.344;14.518;2023-01-29T10:03:19;101507.44;;;0.23;100.00
13695;BME280;6919;52.344;14.518;2023-01-29T10:06:04;101515.41;;;0.21;100.00
13695;BME280;6919;52.344;14.518;2023-01-29T10:09:41;101509.75;;;0.30;100.00
13695;BME280;6919;52.344;14.518;2023-01-29T10:12:37;101503.34;;;0.36;100.00
13695;BME280;6919;52.344;14.518;2023-01-29T10:15:28;101502.72;;;0.31;100.00
13695;BME280;6919;52.344;14.518;2023-01-29T10:18:32;101492.78;;;0.36;100.00
13695;BME280;6919;52.344;14.518;2023-01-29T10:21:28;101474.69;;;0.47;100.00
13695;BME280;6919;52.344;14.518;2023-01-29T10:24:17;101482.25;;;0.36;100.00
13695;BME280;6919;52.344;14.518;2023-01-29T10:26:50;101481.91;;;0.43;100.00
13695;BME280;6919;52.344;14.518;2023-01-29T10:29:19;101475.38;;;0.52;100.00
13695;BME280;6919;52.344;14.518;2023-01-29T10:31:54;101466.66;;;0.50;100.00
13695;BME280;6919;52.344;14.518;2023-01-29T10:34:30;101462.75;;;0.58;100.00
13695;BME280;6919;52.344;14.518;2023-01-29T10:37:07;101462.66;;;0.60;100.00
13695;BME280;6919;52.344;14.518;2023-01-29T10:39:41;101472.09;;;0.65;100.00
13695;BME280;6919;52.344;14.518;2023-01-29T10:42:23;101464.50;;;0.58;100.00
13695;BME280;6919;52.344;14.518;2023-01-29T10:45:12;101474.72;;;0.65;100.00
13695;BME280;6919;52.344;14.518;2023-01-29T10:48:28;101488.50;;;0.53;100.00
13695;BME280;6919;52.344;14.518;2023-01-29T10:51:10;101491.69;;;0.60;100.00
13695;BME280;6919;52.344;14.518;2023-01-29T10:53:57;101491.44;;;0.66;100.00
13695;BME280;6919;52.344;14.518;2023-01-29T10:56:48;101479.84;;;0.87;100.00
13695;BME280;6919;52.344;14.518;2023-01-29T10:59:47;101478.94;;;0.69;100.00
13695;BME280;6919;52.344;14.518;2023-01-29T11:02:19;101471.56;;;0.76;100.00
13695;BME280;6919;52.344;14.518;2023-01-29T11:04:48;101467.59;;;0.86;100.00
13695;BME280;6919;52.344;14.518;2023-01-29T11:07:21;101461.59;;;0.82;100.00
13695;BME280;6919;52.344;14.518;2023-01-29T11:09:55;101458.59;;;0.90;100.00
13695;BME280;6919;52.344;14.518;2023-01-29T11:12:28;101463.03;;;0.89;100.00
13695;BME280;6919;52.344;14.518;2023-01-29T11:15:06;101448.63;;;0.96;100.00
13695;BME280;6919;52.344;14.518;2023-01-29T11:18:01;101448.41;;;0.82;100.00
13695;BME280;6919;52.344;14.518;2023-01-29T11:20:32;101446.94;;;0.94;100.00
13695;BME280;6919;52.344;14.518;2023-01-29T11:23:01;101443.09;;;1.01;100.00
13695;BME280;6919;52.344;14.518;2023-01-29T11:25:30;101450.59;;;1.10;100.00
13695;BME280;6919;52.344;14.518;2023-01-29T11:28:01;101449.13;;;1.21;100.00
13695;BME280;6919;52.344;14.518;2023-01-29T11:30:37;101448.56;;;1.15;100.00
13695;BME280;6919;52.344;14.518;2023-01-29T11:33:11;101443.66;;;1.07;100.00
13695;BME280;6919;52.344;14.518;2023-01-29T11:35:45;101440.22;;;1.05;100.00
13695;BME280;6919;52.344;14.518;2023-01-29T11:38:25;101435.03;;;1.04;100.00
13695;BME280;6919;52.344;14.518;2023-01-29T11:41:05;101432.28;;;1.24;100.00
13695;BME280;6919;52.344;14.518;2023-01-29T11:43:34;101425.72;;;1.14;100.00
13695;BME280;6919;52.344;14.518;2023-01-29T11:46:09;101421.47;;;1.11;100.00
13695;BME280;6919;52.344;14.518;2023-01-29T11:48:44;101416.28;;;1.27;100.00
13695;BME280;6919;52.344;14.518;2023-01-29T11:51:22;101419.38;;;1.35;100.00
13695;BME280;6919;52.344;14.518;2023-01-29T11:53:57;101407.63;;;1.23;100.00
13695;BME280;6919;52.344;14.518;2023-01-29T11:56:32;101410.72;;;1.33;100.00
13695;BME280;6919;52.344;14.518;2023-01-29T11:59:01;101407.81;;;1.37;100.00
13695;BME280;6919;52.344;14.518;2023-01-29T12:01:37;101399.03;;;1.54;100.00
13695;BME280;6919;52.344;14.518;2023-01-29T12:04:17;101390.03;;;1.58;100.00
13695;BME280;6919;52.344;14.518;2023-01-29T12:06:50;101388.22;;;1.58;100.00
13695;BME280;6919;52.344;14.518;2023-01-29T12:09:23;101379.06;;;1.65;100.00
13695;BME280;6919;52.344;14.518;2023-01-29T12:11:53;101388.59;;;1.68;100.00
13695;BME280;6919;52.344;14.518;2023-01-29T12:14:27;101375.53;;;1.82;100.00
13695;BME280;6919;52.344;14.518;2023-01-29T12:17:05;101369.56;;;1.61;100.00
13695;BME280;6919;52.344;14.518;2023-01-29T12:19:43;101370.53;;;1.60;100.00
13695;BME280;6919;52.344;14.518;2023-01-29T12:22:21;101353.25;;;1.53;100.00
13695;BME280;6919;52.344;14.518;2023-01-29T12:24:56;101349.75;;;1.70;100.00
13695;BME280;6919;52.344;14.518;2023-01-29T12:27:33;101336.00;;;1.63;100.00
13695;BME280;6919;52.344;14.518;2023-01-29T12:30:14;101323.16;;;1.73;100.00
13695;BME280;6919;52.344;14.518;2023-01-29T12:32:53;101323.16;;;1.73;100.00
13695;BME280;6919;52.344;14.518;2023-01-29T12:35:29;101318.88;;;1.70;100.00
13695;BME280;6919;52.344;14.518;2023-01-29T12:38:03;101307.59;;;1.67;100.00
13695;BME280;6919;52.344;14.518;2023-01-29T12:40:43;101315.81;;;1.78;100.00
13695;BME280;6919;52.344;14.518;2023-01-29T12:43:16;101306.50;;;1.71;100.00
13695;BME280;6919;52.344;14.518;2023-01-29T12:45:50;101288.88;;;1.71;100.00
13695;BME280;6919;52.344;14.518;2023-01-29T12:48:27;101306.66;;;1.68;100.00
13695;BME280;6919;52.344;14.518;2023-01-29T12:51:06;101298.94;;;1.65;100.00
13695;BME280;6919;52.344;14.518;2023-01-29T12:53:40;101294.22;;;1.70;100.00
13695;BME280;6919;52.344;14.518;2023-01-29T12:56:23;101288.03;;;1.54;100.00
13695;BME280;6919;52.344;14.518;2023-01-29T12:58:55;101290.81;;;1.68;100.00
13695;BME280;6919;52.344;14.518;2023-01-29T13:01:30;101275.50;;;1.74;100.00
13695;BME280;6919;52.344;14.518;2023-01-29T13:04:08;101275.66;;;1.71;100.00
13695;BME280;6919;52.344;14.518;2023-01-29T13:06:44;101284.53;;;1.70;100.00
13695;BME280;6919;52.344;14.518;2023-01-29T13:09:20;101279.84;;;1.75;100.00
13695;BME280;6919;52.344;14.518;2023-01-29T13:11:54;101289.97;;;1.67;100.00
13695;BME280;6919;52.344;14.518;2023-01-29T13:14:26;101287.41;;;1.66;100.00
13695;BME280;6919;52.344;14.518;2023-01-29T13:17:08;101293.28;;;1.71;100.00
13695;BME280;6919;52.344;14.518;2023-01-29T13:19:44;101302.44;;;1.81;100.00